EGPI/ILY METAR and TAF weather

Enter ICAO airport designator
Station Type Date Time Source
EGPI METAR 2022/01/29 11:20 UTC NOAA

EGPI 291120Z 30030KT 9999 -RA SCT025 BKN039 09/04 Q1022


Station Type Date Time Source
EGPI Decoded METAR 2022/01/29 11:20 UTC NOAA

Islay, United Kingdom (EGPI) 55-40-55N 006-15-24W
Jan 29, 2022 - 06:20 AM EST / 2022.01.29 1120 UTC
Wind: from the WNW (300 degrees) at 35 MPH (30 KT):0
Visibility: greater than 7 mile(s):0
Sky conditions: mostly cloudy
Weather: light rain
Temperature: 48 F (9 C)
Dew Point: 39 F (4 C)
Relative Humidity: 70%
Pressure (altimeter): 30.18 in. Hg (1022 hPa)
ob: EGPI 291120Z 30030KT 9999 -RA SCT025 BKN039 09/04 Q1022
cycle: 11

Station Type Date Time Source
EGPI TAF UTC NOAA

Error!

Example: see airport list